sensor_id;sensor_type;location;lat;lon;timestamp;pressure;altitude;pressure_sealevel;temperature;humidity
72921;BME280;61064;51.654;5.476;2023-06-10T00:00:00;101391.88;;;22.94;46.85
72921;BME280;61064;51.654;5.476;2023-06-10T00:02:28;101398.25;;;22.93;47.27
72921;BME280;61064;51.654;5.476;2023-06-10T00:04:53;101398.44;;;22.88;47.13
72921;BME280;61064;51.654;5.476;2023-06-10T00:07:19;101391.34;;;22.84;47.09
72921;BME280;61064;51.654;5.476;2023-06-10T00:09:44;101401.34;;;22.82;47.15
72921;BME280;61064;51.654;5.476;2023-06-10T00:12:10;101398.84;;;22.76;47.61
72921;BME280;61064;51.654;5.476;2023-06-10T00:14:39;101402.56;;;22.73;47.42
72921;BME280;61064;51.654;5.476;2023-06-10T00:17:06;101396.31;;;22.71;47.69
72921;BME280;61064;51.654;5.476;2023-06-10T00:19:34;101397.34;;;22.67;47.69
72921;BME280;61064;51.654;5.476;2023-06-10T00:22:00;101394.63;;;22.67;47.65
72921;BME280;61064;51.654;5.476;2023-06-10T00:24:26;101400.09;;;22.66;47.83
72921;BME280;61064;51.654;5.476;2023-06-10T00:26:51;101399.31;;;22.62;47.78
72921;BME280;61064;51.654;5.476;2023-06-10T00:29:16;101404.78;;;22.61;48.00
72921;BME280;61064;51.654;5.476;2023-06-10T00:31:43;101397.78;;;22.54;48.08
72921;BME280;61064;51.654;5.476;2023-06-10T00:34:08;101397.91;;;22.51;47.92
72921;BME280;61064;51.654;5.476;2023-06-10T00:36:34;101397.19;;;22.46;48.07
72921;BME280;61064;51.654;5.476;2023-06-10T00:39:00;101406.25;;;22.45;48.26
72921;BME280;61064;51.654;5.476;2023-06-10T00:41:26;101403.63;;;22.42;48.45
72921;BME280;61064;51.654;5.476;2023-06-10T00:43:51;101410.06;;;22.39;48.45
72921;BME280;61064;51.654;5.476;2023-06-10T00:46:17;101410.97;;;22.38;48.60
72921;BME280;61064;51.654;5.476;2023-06-10T00:48:45;101413.78;;;22.35;48.70
72921;BME280;61064;51.654;5.476;2023-06-10T00:51:11;101410.25;;;22.33;48.78
72921;BME280;61064;51.654;5.476;2023-06-10T00:53:39;101415.84;;;22.28;48.81
72921;BME280;61064;51.654;5.476;2023-06-10T00:56:07;101415.91;;;22.25;48.91
72921;BME280;61064;51.654;5.476;2023-06-10T00:58:32;101410.66;;;22.21;49.16
72921;BME280;61064;51.654;5.476;2023-06-10T01:00:58;101413.47;;;22.18;49.38
72921;BME280;61064;51.654;5.476;2023-06-10T01:03:23;101405.44;;;22.15;49.41
72921;BME280;61064;51.654;5.476;2023-06-10T01:05:57;101411.00;;;22.10;49.43
72921;BME280;61064;51.654;5.476;2023-06-10T01:08:33;101412.94;;;22.07;49.70
72921;BME280;61064;51.654;5.476;2023-06-10T01:11:01;101404.88;;;22.04;49.98
72921;BME280;61064;51.654;5.476;2023-06-10T01:13:30;101412.16;;;22.02;49.99
72921;BME280;61064;51.654;5.476;2023-06-10T01:15:57;101407.75;;;21.99;50.33
72921;BME280;61064;51.654;5.476;2023-06-10T01:18:23;101416.03;;;21.94;50.74
72921;BME280;61064;51.654;5.476;2023-06-10T01:20:49;101400.81;;;21.89;50.49
72921;BME280;61064;51.654;5.476;2023-06-10T01:23:15;101414.41;;;21.87;50.70
72921;BME280;61064;51.654;5.476;2023-06-10T01:25:46;101416.38;;;21.82;50.95
72921;BME280;61064;51.654;5.476;2023-06-10T01:28:19;101416.50;;;21.78;51.04
72921;BME280;61064;51.654;5.476;2023-06-10T01:33:46;101421.44;;;21.64;51.24
72921;BME280;61064;51.654;5.476;2023-06-10T01:36:13;101413.56;;;21.56;51.54
72921;BME280;61064;51.654;5.476;2023-06-10T01:38:43;101417.28;;;21.52;51.68
72921;BME280;61064;51.654;5.476;2023-06-10T01:41:10;101414.75;;;21.46;51.75
72921;BME280;61064;51.654;5.476;2023-06-10T01:43:38;101415.06;;;21.35;52.07
72921;BME280;61064;51.654;5.476;2023-06-10T01:46:03;101417.03;;;21.30;52.13
72921;BME280;61064;51.654;5.476;2023-06-10T01:48:29;101420.84;;;21.23;52.33
72921;BME280;61064;51.654;5.476;2023-06-10T01:50:54;101411.94;;;21.18;52.56
72921;BME280;61064;51.654;5.476;2023-06-10T01:53:21;101424.69;;;21.14;52.86
72921;BME280;61064;51.654;5.476;2023-06-10T01:55:47;101428.38;;;21.10;52.96
72921;BME280;61064;51.654;5.476;2023-06-10T01:58:13;101424.84;;;21.07;53.09
72921;BME280;61064;51.654;5.476;2023-06-10T02:00:38;101430.25;;;21.07;53.08
72921;BME280;61064;51.654;5.476;2023-06-10T02:03:03;101424.09;;;21.02;53.42
72921;BME280;61064;51.654;5.476;2023-06-10T02:05:29;101423.31;;;20.98;53.44
72921;BME280;61064;51.654;5.476;2023-06-10T02:07:54;101423.41;;;20.95;53.52
72921;BME280;61064;51.654;5.476;2023-06-10T02:10:20;101425.31;;;20.90;53.60
72921;BME280;61064;51.654;5.476;2023-06-10T02:12:45;101428.13;;;20.87;53.94
72921;BME280;61064;51.654;5.476;2023-06-10T02:15:10;101432.66;;;20.85;53.89
72921;BME280;61064;51.654;5.476;2023-06-10T02:17:36;101437.25;;;20.83;53.82
72921;BME280;61064;51.654;5.476;2023-06-10T02:20:02;101428.38;;;20.78;54.16
72921;BME280;61064;51.654;5.476;2023-06-10T02:22:31;101428.47;;;20.73;54.19
72921;BME280;61064;51.654;5.476;2023-06-10T02:24:57;101420.41;;;20.72;54.34
72921;BME280;61064;51.654;5.476;2023-06-10T02:27:23;101427.66;;;20.70;54.80
72921;BME280;61064;51.654;5.476;2023-06-10T02:29:48;101443.09;;;20.66;54.66
72921;BME280;61064;51.654;5.476;2023-06-10T02:32:13;101432.31;;;20.65;54.70
72921;BME280;61064;51.654;5.476;2023-06-10T02:34:39;101439.66;;;20.60;54.65
72921;BME280;61064;51.654;5.476;2023-06-10T02:37:04;101440.56;;;20.59;54.96
72921;BME280;61064;51.654;5.476;2023-06-10T02:39:29;101437.06;;;20.55;55.07
72921;BME280;61064;51.654;5.476;2023-06-10T02:41:55;101436.22;;;20.53;55.08
72921;BME280;61064;51.654;5.476;2023-06-10T02:44:26;101435.34;;;20.51;55.17
72921;BME280;61064;51.654;5.476;2023-06-10T02:46:51;101441.75;;;20.49;55.38
72921;BME280;61064;51.654;5.476;2023-06-10T02:49:17;101435.56;;;20.44;55.46
72921;BME280;61064;51.654;5.476;2023-06-10T02:51:42;101444.63;;;20.41;55.64
72921;BME280;61064;51.654;5.476;2023-06-10T02:54:08;101433.03;;;20.36;55.63
72921;BME280;61064;51.654;5.476;2023-06-10T02:56:33;101434.03;;;20.32;55.85
72921;BME280;61064;51.654;5.476;2023-06-10T02:58:59;101427.84;;;20.27;55.89
72921;BME280;61064;51.654;5.476;2023-06-10T03:01:24;101433.25;;;20.27;55.97
72921;BME280;61064;51.654;5.476;2023-06-10T03:03:50;101434.19;;;20.24;56.12
72921;BME280;61064;51.654;5.476;2023-06-10T03:06:16;101436.06;;;20.22;56.27
72921;BME280;61064;51.654;5.476;2023-06-10T03:08:41;101438.81;;;20.19;56.33
72921;BME280;61064;51.654;5.476;2023-06-10T03:11:06;101438.03;;;20.14;56.36
72921;BME280;61064;51.654;5.476;2023-06-10T03:13:32;101441.75;;;20.10;56.67
72921;BME280;61064;51.654;5.476;2023-06-10T03:15:58;101441.88;;;20.04;56.78
72921;BME280;61064;51.654;5.476;2023-06-10T03:18:27;101452.78;;;20.00;57.00
72921;BME280;61064;51.654;5.476;2023-06-10T03:20:53;101443.91;;;19.95;57.00
72921;BME280;61064;51.654;5.476;2023-06-10T03:23:18;101437.69;;;19.89;57.25
72921;BME280;61064;51.654;5.476;2023-06-10T03:25:44;101450.34;;;19.89;57.38
72921;BME280;61064;51.654;5.476;2023-06-10T03:28:11;101449.47;;;19.87;57.45
72921;BME280;61064;51.654;5.476;2023-06-10T03:30:36;101451.38;;;19.83;57.37
72921;BME280;61064;51.654;5.476;2023-06-10T03:33:01;101448.75;;;19.79;57.65
72921;BME280;61064;51.654;5.476;2023-06-10T03:35:27;101457.72;;;19.81;57.68
72921;BME280;61064;51.654;5.476;2023-06-10T03:37:52;101453.34;;;19.75;57.69
72921;BME280;61064;51.654;5.476;2023-06-10T03:40:17;101456.03;;;19.75;57.76
72921;BME280;61064;51.654;5.476;2023-06-10T03:42:43;101457.94;;;19.70;57.81
72921;BME280;61064;51.654;5.476;2023-06-10T03:45:11;101461.53;;;19.71;57.89
72921;BME280;61064;51.654;5.476;2023-06-10T03:47:37;101464.25;;;19.69;58.18
72921;BME280;61064;51.654;5.476;2023-06-10T03:50:04;101465.16;;;19.70;58.29
72921;BME280;61064;51.654;5.476;2023-06-10T03:52:30;101475.97;;;19.68;58.26
72921;BME280;61064;51.654;5.476;2023-06-10T03:54:56;101473.38;;;19.64;58.18
72921;BME280;61064;51.654;5.476;2023-06-10T03:57:21;101459.97;;;19.59;58.28
72921;BME280;61064;51.654;5.476;2023-06-10T03:59:47;101467.22;;;19.57;58.44
72921;BME280;61064;51.654;5.476;2023-06-10T04:02:12;101461.81;;;19.57;58.56
72921;BME280;61064;51.654;5.476;2023-06-10T04:04:40;101470.00;;;19.54;58.44
72921;BME280;61064;51.654;5.476;2023-06-10T04:07:06;101468.19;;;19.55;58.59
72921;BME280;61064;51.654;5.476;2023-06-10T04:09:31;101468.19;;;19.53;58.65
72921;BME280;61064;51.654;5.476;2023-06-10T04:11:57;101477.19;;;19.54;58.77
72921;BME280;61064;51.654;5.476;2023-06-10T04:14:22;101471.84;;;19.50;58.60
72921;BME280;61064;51.654;5.476;2023-06-10T04:16:49;101474.53;;;19.50;58.71
72921;BME280;61064;51.654;5.476;2023-06-10T04:19:15;101477.34;;;19.46;58.70
72921;BME280;61064;51.654;5.476;2023-06-10T04:21:41;101471.97;;;19.43;58.83
72921;BME280;61064;51.654;5.476;2023-06-10T04:24:07;101478.28;;;19.42;58.86
72921;BME280;61064;51.654;5.476;2023-06-10T04:26:32;101488.16;;;19.43;58.74
72921;BME280;61064;51.654;5.476;2023-06-10T04:28:58;101486.41;;;19.40;58.89
72921;BME280;61064;51.654;5.476;2023-06-10T04:31:24;101485.56;;;19.38;58.90
72921;BME280;61064;51.654;5.476;2023-06-10T04:33:49;101491.81;;;19.40;58.91
72921;BME280;61064;51.654;5.476;2023-06-10T04:36:14;101487.31;;;19.39;58.89
72921;BME280;61064;51.654;5.476;2023-06-10T04:38:40;101489.19;;;19.36;58.84
72921;BME280;61064;51.654;5.476;2023-06-10T04:41:06;101497.28;;;19.37;58.83
72921;BME280;61064;51.654;5.476;2023-06-10T04:43:32;101498.13;;;19.39;58.79
72921;BME280;61064;51.654;5.476;2023-06-10T04:45:57;101500.81;;;19.39;58.64
72921;BME280;61064;51.654;5.476;2023-06-10T04:48:22;101495.50;;;19.36;58.62
72921;BME280;61064;51.654;5.476;2023-06-10T04:50:49;101494.50;;;19.40;58.66
72921;BME280;61064;51.654;5.476;2023-06-10T04:53:15;101495.38;;;19.42;58.72
72921;BME280;61064;51.654;5.476;2023-06-10T04:55:40;101498.00;;;19.47;58.64
72921;BME280;61064;51.654;5.476;2023-06-10T04:58:08;101495.28;;;19.48;58.54
72921;BME280;61064;51.654;5.476;2023-06-10T05:00:33;101500.66;;;19.50;58.51
72921;BME280;61064;51.654;5.476;2023-06-10T05:02:58;101503.28;;;19.55;58.48
72921;BME280;61064;51.654;5.476;2023-06-10T05:05:24;101496.06;;;19.55;58.40
72921;BME280;61064;51.654;5.476;2023-06-10T05:07:49;101495.97;;;19.60;58.25
72921;BME280;61064;51.654;5.476;2023-06-10T05:10:15;101506.66;;;19.64;58.21
72921;BME280;61064;51.654;5.476;2023-06-10T05:12:40;101494.88;;;19.68;58.14
72921;BME280;61064;51.654;5.476;2023-06-10T05:15:07;101499.22;;;19.75;58.23
72921;BME280;61064;51.654;5.476;2023-06-10T05:17:33;101498.25;;;19.79;58.05
72921;BME280;61064;51.654;5.476;2023-06-10T05:20:00;101489.16;;;19.83;58.06
72921;BME280;61064;51.654;5.476;2023-06-10T05:22:26;101491.66;;;19.92;58.01
72921;BME280;61064;51.654;5.476;2023-06-10T05:24:52;101496.03;;;20.00;57.84
72921;BME280;61064;51.654;5.476;2023-06-10T05:27:18;101504.81;;;20.08;57.66
72921;BME280;61064;51.654;5.476;2023-06-10T05:29:44;101496.59;;;20.14;57.49
72921;BME280;61064;51.654;5.476;2023-06-10T05:32:11;101493.63;;;20.24;57.40
72921;BME280;61064;51.654;5.476;2023-06-10T05:34:36;101494.28;;;20.37;57.20
72921;BME280;61064;51.654;5.476;2023-06-10T05:37:02;101498.53;;;20.47;56.98
72921;BME280;61064;51.654;5.476;2023-06-10T05:39:27;101491.03;;;20.60;56.90
72921;BME280;61064;51.654;5.476;2023-06-10T05:41:53;101495.13;;;20.76;56.69
72921;BME280;61064;51.654;5.476;2023-06-10T05:44:18;101495.63;;;20.92;56.32
72921;BME280;61064;51.654;5.476;2023-06-10T05:46:43;101492.50;;;21.07;55.93
72921;BME280;61064;51.654;5.476;2023-06-10T05:49:09;101494.00;;;21.20;55.84
72921;BME280;61064;51.654;5.476;2023-06-10T05:51:34;101499.88;;;21.36;55.56
72921;BME280;61064;51.654;5.476;2023-06-10T05:53:59;101489.56;;;21.50;55.08
72921;BME280;61064;51.654;5.476;2023-06-10T05:56:25;101496.44;;;21.62;55.01
72921;BME280;61064;51.654;5.476;2023-06-10T05:58:51;101493.34;;;21.74;54.78
72921;BME280;61064;51.654;5.476;2023-06-10T06:01:16;101501.13;;;21.86;54.57
72921;BME280;61064;51.654;5.476;2023-06-10T06:03:42;101494.53;;;21.96;54.29
72921;BME280;61064;51.654;5.476;2023-06-10T06:06:07;101499.50;;;22.11;54.08
72921;BME280;61064;51.654;5.476;2023-06-10T06:08:32;101504.44;;;22.26;53.70
72921;BME280;61064;51.654;5.476;2023-06-10T06:10:58;101504.13;;;22.35;53.29
72921;BME280;61064;51.654;5.476;2023-06-10T06:13:23;101499.22;;;22.48;53.36
72921;BME280;61064;51.654;5.476;2023-06-10T06:15:50;101502.41;;;22.62;53.06
72921;BME280;61064;51.654;5.476;2023-06-10T06:18:15;101494.88;;;22.70;52.69
72921;BME280;61064;51.654;5.476;2023-06-10T06:20:41;101498.19;;;22.80;52.29
72921;BME280;61064;51.654;5.476;2023-06-10T06:23:06;101500.44;;;22.94;52.16
72921;BME280;61064;51.654;5.476;2023-06-10T06:25:33;101498.28;;;23.03;51.66
72921;BME280;61064;51.654;5.476;2023-06-10T06:28:00;101507.06;;;23.11;51.51
72921;BME280;61064;51.654;5.476;2023-06-10T06:30:26;101494.94;;;23.21;51.48
72921;BME280;61064;51.654;5.476;2023-06-10T06:32:51;101508.19;;;23.31;51.20
72921;BME280;61064;51.654;5.476;2023-06-10T06:35:16;101498.00;;;23.37;50.89
72921;BME280;61064;51.654;5.476;2023-06-10T06:37:42;101496.69;;;23.49;50.82
72921;BME280;61064;51.654;5.476;2023-06-10T06:40:08;101505.34;;;23.60;50.36
72921;BME280;61064;51.654;5.476;2023-06-10T06:42:33;101499.63;;;23.68;49.98
72921;BME280;61064;51.654;5.476;2023-06-10T06:44:58;101503.78;;;23.78;49.98
72921;BME280;61064;51.654;5.476;2023-06-10T06:47:24;101499.75;;;23.88;49.56
72921;BME280;61064;51.654;5.476;2023-06-10T06:49:49;101503.13;;;23.94;49.40
72921;BME280;61064;51.654;5.476;2023-06-10T06:52:15;101502.06;;;23.98;49.26
72921;BME280;61064;51.654;5.476;2023-06-10T06:54:41;101508.91;;;24.09;48.82
72921;BME280;61064;51.654;5.476;2023-06-10T06:57:06;101501.34;;;24.17;48.82
72921;BME280;61064;51.654;5.476;2023-06-10T06:59:32;101509.16;;;24.26;48.14
72921;BME280;61064;51.654;5.476;2023-06-10T07:01:57;101506.25;;;24.30;47.89
72921;BME280;61064;51.654;5.476;2023-06-10T07:04:23;101507.84;;;24.36;47.83
72921;BME280;61064;51.654;5.476;2023-06-10T07:06:48;101509.38;;;24.43;47.71
72921;BME280;61064;51.654;5.476;2023-06-10T07:09:14;101508.84;;;24.57;48.08
72921;BME280;61064;51.654;5.476;2023-06-10T07:11:39;101504.63;;;24.70;47.42
72921;BME280;61064;51.654;5.476;2023-06-10T07:14:05;101505.06;;;24.81;46.99
72921;BME280;61064;51.654;5.476;2023-06-10T07:16:30;101518.16;;;24.95;46.89
72921;BME280;61064;51.654;5.476;2023-06-10T07:18:55;101522.25;;;25.05;47.10
72921;BME280;61064;51.654;5.476;2023-06-10T07:21:21;101506.38;;;25.14;47.07
72921;BME280;61064;51.654;5.476;2023-06-10T07:23:47;101518.19;;;25.35;46.74
72921;BME280;61064;51.654;5.476;2023-06-10T07:26:13;101511.03;;;25.53;46.34
72921;BME280;61064;51.654;5.476;2023-06-10T07:28:43;101515.06;;;25.64;45.95
72921;BME280;61064;51.654;5.476;2023-06-10T07:31:08;101508.16;;;25.76;45.59
72921;BME280;61064;51.654;5.476;2023-06-10T07:33:34;101513.13;;;25.87;45.34
72921;BME280;61064;51.654;5.476;2023-06-10T07:35:59;101514.41;;;25.98;44.87
72921;BME280;61064;51.654;5.476;2023-06-10T07:38:28;101516.56;;;26.11;44.24
72921;BME280;61064;51.654;5.476;2023-06-10T07:40:53;101517.09;;;26.19;44.28
72921;BME280;61064;51.654;5.476;2023-06-10T07:43:19;101515.44;;;26.35;44.29
72921;BME280;61064;51.654;5.476;2023-06-10T07:45:44;101524.75;;;26.48;43.78
72921;BME280;61064;51.654;5.476;2023-06-10T07:48:10;101513.41;;;26.57;43.50
72921;BME280;61064;51.654;5.476;2023-06-10T07:50:35;101519.28;;;26.67;43.36
72921;BME280;61064;51.654;5.476;2023-06-10T07:53:01;101520.66;;;26.75;43.06
72921;BME280;61064;51.654;5.476;2023-06-10T07:55:27;101521.00;;;26.86;42.82
72921;BME280;61064;51.654;5.476;2023-06-10T07:57:53;101529.59;;;26.98;42.50
72921;BME280;61064;51.654;5.476;2023-06-10T08:00:19;101525.13;;;27.14;42.63
72921;BME280;61064;51.654;5.476;2023-06-10T08:02:45;101521.53;;;27.30;41.85
72921;BME280;61064;51.654;5.476;2023-06-10T08:05:10;101514.41;;;27.44;41.64
72921;BME280;61064;51.654;5.476;2023-06-10T08:07:36;101524.09;;;27.51;41.06
72921;BME280;61064;51.654;5.476;2023-06-10T08:10:02;101513.28;;;27.48;40.78
72921;BME280;61064;51.654;5.476;2023-06-10T08:12:29;101518.66;;;27.51;40.98
72921;BME280;61064;51.654;5.476;2023-06-10T08:14:55;101516.28;;;27.60;40.56
72921;BME280;61064;51.654;5.476;2023-06-10T08:17:20;101513.31;;;27.65;40.85
72921;BME280;61064;51.654;5.476;2023-06-10T08:19:46;101501.16;;;27.70;40.75
72921;BME280;61064;51.654;5.476;2023-06-10T08:22:11;101503.22;;;27.83;40.63
72921;BME280;61064;51.654;5.476;2023-06-10T08:24:37;101506.97;;;27.97;40.42
72921;BME280;61064;51.654;5.476;2023-06-10T08:27:02;101517.13;;;28.11;39.86
72921;BME280;61064;51.654;5.476;2023-06-10T08:29:28;101511.00;;;28.23;39.65
72921;BME280;61064;51.654;5.476;2023-06-10T08:31:55;101517.66;;;28.35;39.30
72921;BME280;61064;51.654;5.476;2023-06-10T08:34:20;101509.72;;;28.46;38.35
72921;BME280;61064;51.654;5.476;2023-06-10T08:36:45;101511.38;;;28.48;38.23
72921;BME280;61064;51.654;5.476;2023-06-10T08:39:11;101520.13;;;28.55;38.02
72921;BME280;61064;51.654;5.476;2023-06-10T08:41:41;101520.47;;;28.65;38.22
72921;BME280;61064;51.654;5.476;2023-06-10T08:44:17;101510.78;;;28.75;37.82
72921;BME280;61064;51.654;5.476;2023-06-10T08:46:47;101514.75;;;28.85;37.42
72921;BME280;61064;51.654;5.476;2023-06-10T08:49:18;101515.16;;;28.93;37.56
72921;BME280;61064;51.654;5.476;2023-06-10T08:51:50;101509.47;;;29.12;37.26
72921;BME280;61064;51.654;5.476;2023-06-10T08:54:22;101511.56;;;29.22;37.47
72921;BME280;61064;51.654;5.476;2023-06-10T08:56:51;101512.63;;;29.36;37.06
72921;BME280;61064;51.654;5.476;2023-06-10T08:59:18;101514.69;;;29.46;36.42
72921;BME280;61064;51.654;5.476;2023-06-10T09:01:44;101518.94;;;29.52;36.40
72921;BME280;61064;51.654;5.476;2023-06-10T09:04:10;101513.94;;;29.58;35.97
72921;BME280;61064;51.654;5.476;2023-06-10T09:06:35;101504.94;;;29.70;36.20
72921;BME280;61064;51.654;5.476;2023-06-10T09:09:02;101509.47;;;29.86;36.45
72921;BME280;61064;51.654;5.476;2023-06-10T09:11:28;101508.72;;;29.98;36.08
72921;BME280;61064;51.654;5.476;2023-06-10T09:13:53;101506.06;;;30.10;36.76
72921;BME280;61064;51.654;5.476;2023-06-10T09:16:19;101505.34;;;30.21;36.13
72921;BME280;61064;51.654;5.476;2023-06-10T09:18:45;101505.25;;;30.23;36.06
72921;BME280;61064;51.654;5.476;2023-06-10T09:21:10;101504.94;;;30.27;35.39
72921;BME280;61064;51.654;5.476;2023-06-10T09:23:37;101496.53;;;30.30;35.20
72921;BME280;61064;51.654;5.476;2023-06-10T09:26:08;101503.09;;;30.42;35.10
72921;BME280;61064;51.654;5.476;2023-06-10T09:28:34;101492.88;;;30.58;34.66
72921;BME280;61064;51.654;5.476;2023-06-10T09:31:06;101495.31;;;30.63;34.20
72921;BME280;61064;51.654;5.476;2023-06-10T09:33:32;101491.59;;;30.64;33.85
72921;BME280;61064;51.654;5.476;2023-06-10T09:36:01;101498.84;;;30.65;34.11
72921;BME280;61064;51.654;5.476;2023-06-10T09:38:31;101504.50;;;30.76;34.14
72921;BME280;61064;51.654;5.476;2023-06-10T09:40:57;101505.09;;;30.93;34.01
72921;BME280;61064;51.654;5.476;2023-06-10T09:43:22;101497.16;;;31.16;33.99
72921;BME280;61064;51.654;5.476;2023-06-10T09:45:49;101491.38;;;31.33;33.40
72921;BME280;61064;51.654;5.476;2023-06-10T09:48:14;101493.38;;;31.44;33.41
72921;BME280;61064;51.654;5.476;2023-06-10T09:50:44;101497.34;;;31.52;33.11
72921;BME280;61064;51.654;5.476;2023-06-10T09:53:10;101498.50;;;31.62;33.27
72921;BME280;61064;51.654;5.476;2023-06-10T09:55:39;101501.59;;;31.70;32.98
72921;BME280;61064;51.654;5.476;2023-06-10T09:58:06;101496.50;;;31.77;33.15
72921;BME280;61064;51.654;5.476;2023-06-10T10:00:34;101490.34;;;31.86;33.29
72921;BME280;61064;51.654;5.476;2023-06-10T10:03:00;101489.31;;;32.00;33.33
72921;BME280;61064;51.654;5.476;2023-06-10T10:05:26;101491.22;;;32.12;33.12
72921;BME280;61064;51.654;5.476;2023-06-10T10:07:52;101477.66;;;32.22;33.15
72921;BME280;61064;51.654;5.476;2023-06-10T10:10:20;101485.00;;;32.34;33.19
72921;BME280;61064;51.654;5.476;2023-06-10T10:12:47;101488.59;;;32.47;33.18
72921;BME280;61064;51.654;5.476;2023-06-10T10:15:14;101469.59;;;32.55;32.84
72921;BME280;61064;51.654;5.476;2023-06-10T10:17:48;101482.41;;;32.56;32.90
72921;BME280;61064;51.654;5.476;2023-06-10T10:20:18;101478.06;;;32.65;32.59
72921;BME280;61064;51.654;5.476;2023-06-10T10:22:46;101477.41;;;32.74;32.46
72921;BME280;61064;51.654;5.476;2023-06-10T10:25:25;101468.56;;;32.81;32.49
72921;BME280;61064;51.654;5.476;2023-06-10T10:27:58;101471.00;;;32.97;32.31
72921;BME280;61064;51.654;5.476;2023-06-10T10:30:25;101471.31;;;33.16;32.33
72921;BME280;61064;51.654;5.476;2023-06-10T10:32:58;101469.88;;;33.23;32.06
72921;BME280;61064;51.654;5.476;2023-06-10T10:35:26;101475.53;;;33.33;31.73
72921;BME280;61064;51.654;5.476;2023-06-10T10:37:57;101469.91;;;33.34;30.73
72921;BME280;61064;51.654;5.476;2023-06-10T10:40:27;101462.25;;;33.27;31.18
72921;BME280;61064;51.654;5.476;2023-06-10T10:42:56;101465.84;;;33.27;31.21
72921;BME280;61064;51.654;5.476;2023-06-10T10:45:22;101459.50;;;33.27;31.46
72921;BME280;61064;51.654;5.476;2023-06-10T10:47:52;101465.53;;;33.32;31.11
72921;BME280;61064;51.654;5.476;2023-06-10T10:50:19;101460.03;;;33.43;30.93
72921;BME280;61064;51.654;5.476;2023-06-10T10:55:21;101455.75;;;33.50;30.56
72921;BME280;61064;51.654;5.476;2023-06-10T10:58:07;101455.03;;;33.48;30.12
72921;BME280;61064;51.654;5.476;2023-06-10T11:00:44;101454.53;;;33.54;30.42
72921;BME280;61064;51.654;5.476;2023-06-10T11:03:16;101447.81;;;33.69;29.71
72921;BME280;61064;51.654;5.476;2023-06-10T11:05:48;101452.56;;;33.78;29.34
72921;BME280;61064;51.654;5.476;2023-06-10T11:10:58;101440.91;;;33.75;29.66
72921;BME280;61064;51.654;5.476;2023-06-10T11:13:25;101432.75;;;33.85;29.30
72921;BME280;61064;51.654;5.476;2023-06-10T11:15:52;101447.03;;;33.90;29.44
72921;BME280;61064;51.654;5.476;2023-06-10T11:18:24;101443.16;;;33.92;28.86
72921;BME280;61064;51.654;5.476;2023-06-10T11:26:34;101436.66;;;33.82;28.99
72921;BME280;61064;51.654;5.476;2023-06-10T11:31:46;101442.50;;;34.00;28.46
72921;BME280;61064;51.654;5.476;2023-06-10T11:34:14;101442.50;;;34.11;28.12
72921;BME280;61064;51.654;5.476;2023-06-10T11:36:45;101424.81;;;34.13;28.18
72921;BME280;61064;51.654;5.476;2023-06-10T11:39:12;101425.69;;;34.14;27.91
72921;BME280;61064;51.654;5.476;2023-06-10T11:41:39;101436.13;;;34.10;28.06
72921;BME280;61064;51.654;5.476;2023-06-10T11:44:14;101430.75;;;33.98;27.91
72921;BME280;61064;51.654;5.476;2023-06-10T11:46:40;101431.34;;;33.90;28.24
72921;BME280;61064;51.654;5.476;2023-06-10T11:49:07;101427.34;;;33.94;28.33
72921;BME280;61064;51.654;5.476;2023-06-10T11:51:36;101425.81;;;34.01;28.12
72921;BME280;61064;51.654;5.476;2023-06-10T11:54:02;101425.81;;;34.01;28.43
72921;BME280;61064;51.654;5.476;2023-06-10T11:56:30;101426.19;;;34.08;28.25
72921;BME280;61064;51.654;5.476;2023-06-10T11:59:00;101424.44;;;34.18;28.29
72921;BME280;61064;51.654;5.476;2023-06-10T12:01:36;101414.25;;;34.18;28.08
72921;BME280;61064;51.654;5.476;2023-06-10T12:04:07;101414.66;;;34.25;28.05
72921;BME280;61064;51.654;5.476;2023-06-10T12:09:15;101413.88;;;34.34;27.48
72921;BME280;61064;51.654;5.476;2023-06-10T12:11:41;101412.47;;;34.40;27.65
72921;BME280;61064;51.654;5.476;2023-06-10T12:14:08;101407.84;;;34.40;27.40
72921;BME280;61064;51.654;5.476;2023-06-10T12:16:33;101405.31;;;34.48;27.53
72921;BME280;61064;51.654;5.476;2023-06-10T12:19:03;101401.00;;;34.55;27.42
72921;BME280;61064;51.654;5.476;2023-06-10T12:21:32;101396.22;;;34.57;27.24
72921;BME280;61064;51.654;5.476;2023-06-10T12:24:09;101408.56;;;34.53;26.59
72921;BME280;61064;51.654;5.476;2023-06-10T12:26:42;101395.91;;;34.40;26.54
72921;BME280;61064;51.654;5.476;2023-06-10T12:29:25;101402.34;;;34.29;27.13
72921;BME280;61064;51.654;5.476;2023-06-10T12:32:01;101404.09;;;34.19;26.80
72921;BME280;61064;51.654;5.476;2023-06-10T12:34:33;101394.84;;;34.20;26.84
72921;BME280;61064;51.654;5.476;2023-06-10T12:37:03;101400.22;;;34.33;26.42
72921;BME280;61064;51.654;5.476;2023-06-10T12:39:33;101397.16;;;34.36;26.45
72921;BME280;61064;51.654;5.476;2023-06-10T12:42:00;101394.78;;;34.42;26.11
72921;BME280;61064;51.654;5.476;2023-06-10T12:44:38;101389.34;;;34.52;26.54
72921;BME280;61064;51.654;5.476;2023-06-10T12:47:10;101385.56;;;34.53;25.93
72921;BME280;61064;51.654;5.476;2023-06-10T12:49:37;101388.69;;;34.59;26.04
72921;BME280;61064;51.654;5.476;2023-06-10T12:52:04;101389.16;;;34.64;25.45
72921;BME280;61064;51.654;5.476;2023-06-10T12:54:30;101397.19;;;34.68;25.08
72921;BME280;61064;51.654;5.476;2023-06-10T12:56:55;101393.53;;;34.67;25.18
72921;BME280;61064;51.654;5.476;2023-06-10T12:59:20;101395.41;;;34.67;25.27
72921;BME280;61064;51.654;5.476;2023-06-10T13:01:53;101391.81;;;34.66;25.61
72921;BME280;61064;51.654;5.476;2023-06-10T13:04:19;101400.22;;;34.76;25.48
72921;BME280;61064;51.654;5.476;2023-06-10T13:06:48;101391.50;;;34.80;25.35